Time;durP1;ratioP1;P1;durP2;ratioP2;P2;SDS_P1;SDS_P2;PMS_P1;PMS_P2;Temp;Humidity;BMP_temperature;BMP_pressure;BME280_temperature;BME280_humidity;BME280_pressure;Samples;Min_cycle;Max_cycle;Signal;HPM_P1;HPM_P2
2022/06/16 00:02:05;;;;;;;;;;;;;;;;;;5045944;28;19908;-57
2022/06/16 00:04:31;;;;;;;;;;;;;;;;;;5079351;28;19904;-57
2022/06/16 00:06:59;;;;;;;;;;;;;;;;;;5085568;28;19957;-58
2022/06/16 00:09:25;;;;;;;;;;;;;;;;;;5085751;28;19908;-57
2022/06/16 00:11:51;;;;;;;;;;;;;;;;;;5085160;28;19915;-57
2022/06/16 00:14:17;;;;;;;;;;;;;;;;;;5064014;28;19920;-57
2022/06/16 00:16:43;;;;;;;;;;;;;;;;;;5063506;28;19931;-57
2022/06/16 00:19:09;;;;;;;;;;;;;;;;;;5066590;28;19908;-57
2022/06/16 00:21:35;;;;;;;;;;;;;;;;;;5066498;28;19908;-57
2022/06/16 00:24:01;;;;;;;;;;;;;;;;;;5066882;28;19954;-57
2022/06/16 00:26:27;;;;;;;;;;;;;;;;;;5051627;28;19915;-57
2022/06/16 00:28:53;;;;;;;;;;;;;;;;;;5063866;28;19912;-57
2022/06/16 00:31:19;;;;;;;;;;;;;;;;;;5066620;28;20018;-57
2022/06/16 00:33:44;;;;;;;;;;;;;;;;;;5064491;28;19961;-57
2022/06/16 00:36:11;;;;;;;;;;;;;;;;;;5066751;28;19950;-57
2022/06/16 00:38:36;;;;;;;;;;;;;;;;;;5056764;28;19912;-57
2022/06/16 00:41:02;;;;;;;;;;;;;;;;;;5046718;28;20406;-57
2022/06/16 00:43:29;;;;;;;;;;;;;;;;;;5046514;28;19913;-57
2022/06/16 00:45:55;;;;;;;;;;;;;;;;;;5046544;28;19909;-57
2022/06/16 00:48:21;;;;;;;;;;;;;;;;;;5046159;28;19904;-57
2022/06/16 00:50:47;;;;;;;;;;;;;;;;;;5046693;28;20006;-57
2022/06/16 00:53:13;;;;;;;;;;;;;;;;;;5055466;28;19908;-57
2022/06/16 00:55:39;;;;;;;;;;;;;;;;;;5066688;28;19923;-57
2022/06/16 00:58:05;;;;;;;;;;;;;;;;;;5067016;28;19908;-57
2022/06/16 01:00:49;;;;;;;;;;;;;;;;;;5066113;28;19904;-57
2022/06/16 01:04:51;;;;;;;;;;;;;;;;;;5065340;28;19956;-57
2022/06/16 01:06:01;;;;;;;;;;;;;;;;;;5066497;28;19908;-57
2022/06/16 01:08:27;;;;;;;;;;;;;;;;;;5066092;28;20011;-57
2022/06/16 01:10:53;;;;;;;;;;;;;;;;;;5066576;28;19966;-57
2022/06/16 01:16:03;;;;;;;;;;;;;;;;;;5065812;28;20017;-57
2022/06/16 01:18:29;;;;;;;;;;;;;;;;;;5065129;28;19926;-57
2022/06/16 01:20:55;;;;;;;;;;;;;;;;;;5066332;28;19914;-57
2022/06/16 01:23:21;;;;;;;;;;;;;;;;;;5065991;28;19904;-57
2022/06/16 01:25:47;;;;;;;;;;;;;;;;;;5066158;28;19935;-57
2022/06/16 01:28:13;;;;;;;;;;;;;;;;;;5065231;28;19963;-57
2022/06/16 01:30:39;;;;;;;;;;;;;;;;;;5066669;28;20384;-57
2022/06/16 01:33:05;;;;;;;;;;;;;;;;;;5066611;28;19915;-57
2022/06/16 01:35:32;;;;;;;;;;;;;;;;;;5066142;28;20301;-58
2022/06/16 01:37:57;;;;;;;;;;;;;;;;;;5066167;28;19904;-57
2022/06/16 01:40:23;;;;;;;;;;;;;;;;;;5066023;28;19929;-58
2022/06/16 01:42:49;;;;;;;;;;;;;;;;;;5060617;28;19912;-59
2022/06/16 01:45:15;;;;;;;;;;;;;;;;;;5046005;28;19915;-58
2022/06/16 01:47:41;;;;;;;;;;;;;;;;;;5053553;28;20006;-58
2022/06/16 01:50:07;;;;;;;;;;;;;;;;;;5066731;28;19904;-58
2022/06/16 01:52:33;;;;;;;;;;;;;;;;;;5065259;28;19908;-58
2022/06/16 01:54:59;;;;;;;;;;;;;;;;;;5065938;28;19912;-58
2022/06/16 01:57:26;;;;;;;;;;;;;;;;;;5065697;28;19909;-58
2022/06/16 01:59:51;;;;;;;;;;;;;;;;;;5066089;28;19912;-58
2022/06/16 02:02:17;;;;;;;;;;;;;;;;;;5068993;28;19904;-58
2022/06/16 02:04:43;;;;;;;;;;;;;;;;;;5069534;28;19908;-58
2022/06/16 02:07:09;;;;;;;;;;;;;;;;;;5070140;28;19904;-58
2022/06/16 02:09:35;;;;;;;;;;;;;;;;;;5069468;28;19922;-58
2022/06/16 02:12:01;;;;;;;;;;;;;;;;;;5069530;28;19944;-58
2022/06/16 02:14:27;;;;;;;;;;;;;;;;;;5068511;28;20363;-58
2022/06/16 02:16:54;;;;;;;;;;;;;;;;;;5069226;28;19959;-58
2022/06/16 02:19:20;;;;;;;;;;;;;;;;;;5068432;28;20675;-58
2022/06/16 02:21:46;;;;;;;;;;;;;;;;;;5069564;28;19987;-58
2022/06/16 02:24:13;;;;;;;;;;;;;;;;;;5069141;28;19995;-58
2022/06/16 02:26:39;;;;;;;;;;;;;;;;;;5069561;28;20405;-58
2022/06/16 02:29:05;;;;;;;;;;;;;;;;;;5069801;28;19913;-58
2022/06/16 02:31:31;;;;;;;;;;;;;;;;;;5066155;28;19958;-58
2022/06/16 02:33:57;;;;;;;;;;;;;;;;;;5056345;28;19951;-58
2022/06/16 02:36:23;;;;;;;;;;;;;;;;;;5048633;28;19908;-58
2022/06/16 02:38:49;;;;;;;;;;;;;;;;;;5049025;28;19912;-58
2022/06/16 02:41:15;;;;;;;;;;;;;;;;;;5048891;28;19908;-58
2022/06/16 02:43:41;;;;;;;;;;;;;;;;;;5054858;28;19944;-58
2022/06/16 02:46:07;;;;;;;;;;;;;;;;;;5068699;28;19905;-58
2022/06/16 02:48:32;;;;;;;;;;;;;;;;;;5068470;28;19908;-58
2022/06/16 02:50:58;;;;;;;;;;;;;;;;;;5068669;28;20041;-58
2022/06/16 02:53:30;;;;;;;;;;;;;;;;;;5068442;28;19966;-58
2022/06/16 02:55:55;;;;;;;;;;;;;;;;;;5068489;28;19916;-58
2022/06/16 02:58:21;;;;;;;;;;;;;;;;;;5068067;28;19916;-58
2022/06/16 03:00:48;;;;;;;;;;;;;;;;;;5068567;28;19950;-59
2022/06/16 03:03:14;;;;;;;;;;;;;;;;;;5068261;28;19981;-58
2022/06/16 03:05:40;;;;;;;;;;;;;;;;;;5068217;28;20000;-58
2022/06/16 03:08:05;;;;;;;;;;;;;;;;;;5067806;28;19908;-58
2022/06/16 03:13:16;;;;;;;;;;;;;;;;;;5047043;28;20038;-58
2022/06/16 03:15:42;;;;;;;;;;;;;;;;;;5052532;28;20382;-58
2022/06/16 03:18:08;;;;;;;;;;;;;;;;;;5066856;28;19912;-58
2022/06/16 03:20:34;;;;;;;;;;;;;;;;;;5068250;28;19904;-58
2022/06/16 03:23:00;;;;;;;;;;;;;;;;;;5067659;28;19995;-58
2022/06/16 03:25:26;;;;;;;;;;;;;;;;;;5067861;28;19915;-58
2022/06/16 03:27:52;;;;;;;;;;;;;;;;;;5068535;28;19919;-59
2022/06/16 03:30:18;;;;;;;;;;;;;;;;;;5067162;28;19947;-58
2022/06/16 03:32:44;;;;;;;;;;;;;;;;;;5067885;28;19950;-58
2022/06/16 03:35:09;;;;;;;;;;;;;;;;;;5066862;28;19962;-58
2022/06/16 03:37:35;;;;;;;;;;;;;;;;;;5067830;28;19935;-58
2022/06/16 03:40:01;;;;;;;;;;;;;;;;;;5067743;28;19908;-58
2022/06/16 03:42:27;;;;;;;;;;;;;;;;;;5067796;28;19904;-58
2022/06/16 03:44:53;;;;;;;;;;;;;;;;;;5068527;28;19908;-58
2022/06/16 03:47:19;;;;;;;;;;;;;;;;;;5067798;28;19911;-58
2022/06/16 03:49:45;;;;;;;;;;;;;;;;;;5066404;28;19909;-58
2022/06/16 03:52:11;;;;;;;;;;;;;;;;;;5067283;28;19939;-58
2022/06/16 03:54:37;;;;;;;;;;;;;;;;;;5067320;28;19916;-58
2022/06/16 03:57:03;;;;;;;;;;;;;;;;;;5067041;28;19996;-58
2022/06/16 03:59:29;;;;;;;;;;;;;;;;;;5049369;28;19908;-58
2022/06/16 04:01:55;;;;;;;;;;;;;;;;;;5047256;28;19940;-58
2022/06/16 04:04:21;;;;;;;;;;;;;;;;;;5047943;28;19977;-58
2022/06/16 04:06:47;;;;;;;;;;;;;;;;;;5047510;28;19911;-58
2022/06/16 04:09:13;;;;;;;;;;;;;;;;;;5047059;28;19919;-58
2022/06/16 04:11:39;;;;;;;;;;;;;;;;;;5047308;28;19931;-58
2022/06/16 04:14:07;;;;;;;;;;;;;;;;;;5046817;28;19904;-58
2022/06/16 04:16:33;;;;;;;;;;;;;;;;;;5047780;28;19995;-58
2022/06/16 04:18:59;;;;;;;;;;;;;;;;;;5046937;28;20340;-58
2022/06/16 04:21:25;;;;;;;;;;;;;;;;;;5046919;28;19909;-58
2022/06/16 04:23:51;;;;;;;;;;;;;;;;;;5047376;28;20691;-56
2022/06/16 04:26:17;;;;;;;;;;;;;;;;;;5046591;28;19908;-56
2022/06/16 04:28:43;;;;;;;;;;;;;;;;;;5047162;28;19962;-56
2022/06/16 04:31:09;;;;;;;;;;;;;;;;;;5052286;28;19912;-56
2022/06/16 04:33:35;;;;;;;;;;;;;;;;;;5066994;28;19905;-56
2022/06/16 04:36:01;;;;;;;;;;;;;;;;;;5066443;28;20494;-56
2022/06/16 04:38:27;;;;;;;;;;;;;;;;;;5066744;28;20334;-56
2022/06/16 04:40:53;;;;;;;;;;;;;;;;;;5066925;28;19909;-57
2022/06/16 04:43:19;;;;;;;;;;;;;;;;;;5047603;28;20019;-56
2022/06/16 04:45:45;;;;;;;;;;;;;;;;;;5046641;28;19910;-56
2022/06/16 04:48:11;;;;;;;;;;;;;;;;;;5046582;28;19931;-56
2022/06/16 04:50:37;;;;;;;;;;;;;;;;;;5057319;28;20003;-56
2022/06/16 04:53:03;;;;;;;;;;;;;;;;;;5066554;28;19951;-56
2022/06/16 04:55:29;;;;;;;;;;;;;;;;;;5066371;28;19962;-56
2022/06/16 04:57:55;;;;;;;;;;;;;;;;;;5066831;28;19904;-56
2022/06/16 05:00:21;;;;;;;;;;;;;;;;;;5067005;28;20383;-56
2022/06/16 05:02:46;;;;;;;;;;;;;;;;;;5066682;28;19939;-56
2022/06/16 05:05:12;;;;;;;;;;;;;;;;;;5060744;28;19909;-56
2022/06/16 05:07:38;;;;;;;;;;;;;;;;;;5046617;28;19912;-56
2022/06/16 05:10:04;;;;;;;;;;;;;;;;;;5046429;28;19969;-56
2022/06/16 05:12:30;;;;;;;;;;;;;;;;;;5046438;28;19908;-56
2022/06/16 05:14:56;;;;;;;;;;;;;;;;;;5046089;28;19909;-56
2022/06/16 05:17:22;;;;;;;;;;;;;;;;;;5063051;28;19978;-56
2022/06/16 05:19:48;;;;;;;;;;;;;;;;;;5056675;28;19970;-56
2022/06/16 05:22:14;;;;;;;;;;;;;;;;;;5064869;28;20371;-56
2022/06/16 05:24:40;;;;;;;;;;;;;;;;;;5071269;28;19939;-56
2022/06/16 05:27:07;;;;;;;;;;;;;;;;;;5066211;28;19913;-56
2022/06/16 05:29:33;;;;;;;;;;;;;;;;;;5066185;28;19935;-56
2022/06/16 05:31:59;;;;;;;;;;;;;;;;;;5065967;28;19913;-57
2022/06/16 05:34:24;;;;;;;;;;;;;;;;;;5065242;28;19912;-58
2022/06/16 05:36:50;;;;;;;;;;;;;;;;;;5069903;28;19904;-58
2022/06/16 05:39:16;;;;;;;;;;;;;;;;;;5069440;28;19958;-58
2022/06/16 05:41:42;;;;;;;;;;;;;;;;;;5050132;28;19947;-58
2022/06/16 05:44:08;;;;;;;;;;;;;;;;;;5049736;28;19905;-59
2022/06/16 05:46:34;;;;;;;;;;;;;;;;;;5049803;28;19978;-58
2022/06/16 05:49:00;;;;;;;;;;;;;;;;;;5050017;28;19915;-58
2022/06/16 05:51:26;;;;;;;;;;;;;;;;;;5049832;28;19913;-58
2022/06/16 05:53:52;;;;;;;;;;;;;;;;;;5050303;28;19908;-59
2022/06/16 05:56:18;;;;;;;;;;;;;;;;;;5068357;28;20053;-59
2022/06/16 05:58:44;;;;;;;;;;;;;;;;;;5072775;28;19912;-58
2022/06/16 06:01:10;;;;;;;;;;;;;;;;;;5077942;28;19991;-58
2022/06/16 06:03:38;;;;;;;;;;;;;;;;;;5069915;28;20346;-58
2022/06/16 06:06:04;;;;;;;;;;;;;;;;;;5058806;28;20062;-58
2022/06/16 06:16:44;;;;;;;;;;;;;;;;;;5069325;28;19915;-58
2022/06/16 06:19:25;;;;;;;;;;;;;;;;;;5069055;28;20386;-58
2022/06/16 06:21:58;;;;;;;;;;;;;;;;;;5055238;28;19913;-58
2022/06/16 06:24:23;;;;;;;;;;;;;;;;;;5063778;28;19904;-58
2022/06/16 06:26:49;;;;;;;;;;;;;;;;;;5071217;28;19908;-58
2022/06/16 06:29:15;;;;;;;;;;;;;;;;;;5062382;28;19913;-58
2022/06/16 06:31:41;;;;;;;;;;;;;;;;;;5067442;28;19951;-58
2022/06/16 06:34:07;;;;;;;;;;;;;;;;;;5067302;28;19936;-58
2022/06/16 06:36:33;;;;;;;;;;;;;;;;;;5050908;28;19917;-58
2022/06/16 06:38:59;;;;;;;;;;;;;;;;;;5050491;28;19909;-59
2022/06/16 06:41:25;;;;;;;;;;;;;;;;;;5052106;28;19916;-58
2022/06/16 06:43:51;;;;;;;;;;;;;;;;;;5070008;28;19905;-58
2022/06/16 06:46:17;;;;;;;;;;;;;;;;;;5075983;28;19922;-58
2022/06/16 06:48:43;;;;;;;;;;;;;;;;;;5078384;28;20017;-58
2022/06/16 06:51:09;;;;;;;;;;;;;;;;;;5068530;28;19915;-58
2022/06/16 06:53:35;;;;;;;;;;;;;;;;;;5088882;28;19911;-59
2022/06/16 06:56:01;;;;;;;;;;;;;;;;;;5076917;28;19920;-58
2022/06/16 06:58:31;;;;;;;;;;;;;;;;;;5075161;28;19917;-58
2022/06/16 07:01:00;;;;;;;;;;;;;;;;;;5070402;28;19912;-58
2022/06/16 07:03:25;;;;;;;;;;;;;;;;;;5048573;28;19912;-58
2022/06/16 07:05:51;;;;;;;;;;;;;;;;;;5049870;28;19908;-58
2022/06/16 07:08:18;;;;;;;;;;;;;;;;;;5062434;28;19966;-58
2022/06/16 07:10:43;;;;;;;;;;;;;;;;;;5066800;28;19958;-59
2022/06/16 07:13:09;;;;;;;;;;;;;;;;;;5067304;28;19908;-58
2022/06/16 07:15:37;;;;;;;;;;;;;;;;;;5068042;28;19958;-58
2022/06/16 07:18:03;;;;;;;;;;;;;;;;;;5067678;28;19916;-56
2022/06/16 07:20:30;;;;;;;;;;;;;;;;;;5075988;28;19935;-57
2022/06/16 07:22:56;;;;;;;;;;;;;;;;;;5088210;28;19904;-57
2022/06/16 07:25:22;;;;;;;;;;;;;;;;;;5088816;28;19904;-57
2022/06/16 07:27:48;;;;;;;;;;;;;;;;;;5068687;28;20015;-57
2022/06/16 07:30:14;;;;;;;;;;;;;;;;;;5067541;28;19989;-57
2022/06/16 07:32:40;;;;;;;;;;;;;;;;;;5067848;28;19911;-57
2022/06/16 07:35:06;;;;;;;;;;;;;;;;;;5067386;28;19908;-57
2022/06/16 07:37:32;;;;;;;;;;;;;;;;;;5065960;28;19916;-59
2022/06/16 07:39:58;;;;;;;;;;;;;;;;;;5067602;28;19909;-55
2022/06/16 07:42:24;;;;;;;;;;;;;;;;;;5072539;28;19907;-54
2022/06/16 07:44:50;;;;;;;;;;;;;;;;;;5068914;28;19905;-55
2022/06/16 07:47:15;;;;;;;;;;;;;;;;;;5048592;28;19932;-55
2022/06/16 07:49:43;;;;;;;;;;;;;;;;;;5067565;28;19904;-55
2022/06/16 07:52:09;;;;;;;;;;;;;;;;;;5067303;28;19908;-56
2022/06/16 07:54:34;;;;;;;;;;;;;;;;;;5064847;28;20065;-55
2022/06/16 07:57:00;;;;;;;;;;;;;;;;;;5047056;28;19905;-55
2022/06/16 07:59:26;;;;;;;;;;;;;;;;;;5071143;28;19914;-55
2022/06/16 08:01:54;;;;;;;;;;;;;;;;;;5064524;28;20356;-57
2022/06/16 08:04:20;;;;;;;;;;;;;;;;;;5062543;28;19947;-57
2022/06/16 08:06:46;;;;;;;;;;;;;;;;;;5067307;28;19950;-57
2022/06/16 08:09:12;;;;;;;;;;;;;;;;;;5066222;28;19951;-58
2022/06/16 08:14:24;;;;;;;;;;;;;;;;;;5065906;28;19940;-57
2022/06/16 08:16:50;;;;;;;;;;;;;;;;;;5066412;28;20295;-57
2022/06/16 08:19:17;;;;;;;;;;;;;;;;;;5065351;28;19904;-58
2022/06/16 08:21:43;;;;;;;;;;;;;;;;;;5065527;28;19931;-57
2022/06/16 08:24:10;;;;;;;;;;;;;;;;;;5065185;28;20003;-58
2022/06/16 08:26:36;;;;;;;;;;;;;;;;;;5065540;28;20065;-57
2022/06/16 08:29:02;;;;;;;;;;;;;;;;;;5064957;28;19904;-56
2022/06/16 08:31:28;;;;;;;;;;;;;;;;;;5065348;28;20248;-57
2022/06/16 08:33:55;;;;;;;;;;;;;;;;;;5065935;28;20001;-57
2022/06/16 08:36:21;;;;;;;;;;;;;;;;;;5065928;28;19987;-57
2022/06/16 08:38:48;;;;;;;;;;;;;;;;;;5065518;28;20379;-57
2022/06/16 08:41:15;;;;;;;;;;;;;;;;;;5065440;28;19920;-57
2022/06/16 08:43:41;;;;;;;;;;;;;;;;;;5065133;28;19951;-57
2022/06/16 08:46:08;;;;;;;;;;;;;;;;;;5064862;28;19908;-57
2022/06/16 08:48:34;;;;;;;;;;;;;;;;;;5065395;28;19908;-57
2022/06/16 08:50:59;;;;;;;;;;;;;;;;;;5065132;28;19908;-57
2022/06/16 08:53:25;;;;;;;;;;;;;;;;;;5065141;28;19904;-57
2022/06/16 08:55:52;;;;;;;;;;;;;;;;;;5065530;28;20342;-57
2022/06/16 08:58:19;;;;;;;;;;;;;;;;;;5064515;28;20320;-57
2022/06/16 09:00:45;;;;;;;;;;;;;;;;;;5065274;28;19904;-57
2022/06/16 09:03:12;;;;;;;;;;;;;;;;;;5064827;28;19973;-57
2022/06/16 09:05:39;;;;;;;;;;;;;;;;;;5065077;28;19908;-57
2022/06/16 09:08:06;;;;;;;;;;;;;;;;;;5064964;28;19916;-59
2022/06/16 09:10:33;;;;;;;;;;;;;;;;;;5067583;28;20379;-57
2022/06/16 09:12:59;;;;;;;;;;;;;;;;;;5068763;28;19908;-57
2022/06/16 09:15:25;;;;;;;;;;;;;;;;;;5069029;28;19904;-57
2022/06/16 09:17:52;;;;;;;;;;;;;;;;;;5069768;28;20295;-57
2022/06/16 09:20:18;;;;;;;;;;;;;;;;;;5068701;28;19918;-57
2022/06/16 09:22:44;;;;;;;;;;;;;;;;;;5069367;28;20409;-57
2022/06/16 09:25:10;;;;;;;;;;;;;;;;;;5068572;28;20364;-57
2022/06/16 09:27:36;;;;;;;;;;;;;;;;;;5068720;28;20004;-57
2022/06/16 09:30:03;;;;;;;;;;;;;;;;;;5068865;28;20286;-57
2022/06/16 09:32:29;;;;;;;;;;;;;;;;;;5068682;28;19920;-57
2022/06/16 09:34:55;;;;;;;;;;;;;;;;;;5068609;28;19908;-57
2022/06/16 09:37:21;;;;;;;;;;;;;;;;;;5069204;28;20341;-57
2022/06/16 09:39:47;;;;;;;;;;;;;;;;;;5068496;28;19908;-57
2022/06/16 09:44:58;;;;;;;;;;;;;;;;;;5068088;28;19915;-57
2022/06/16 09:47:25;;;;;;;;;;;;;;;;;;5068753;28;19908;-58
2022/06/16 09:49:51;;;;;;;;;;;;;;;;;;5069472;28;19911;-57
2022/06/16 09:52:16;;;;;;;;;;;;;;;;;;5068453;28;19912;-58
2022/06/16 09:54:42;;;;;;;;;;;;;;;;;;5068135;28;19914;-57
2022/06/16 09:57:08;;;;;;;;;;;;;;;;;;5067988;28;19904;-58
2022/06/16 09:59:34;;;;;;;;;;;;;;;;;;5068183;28;19998;-57
2022/06/16 10:02:00;;;;;;;;;;;;;;;;;;5068091;28;19900;-57
2022/06/16 10:04:26;;;;;;;;;;;;;;;;;;5068296;28;19947;-57
2022/06/16 10:06:53;;;;;;;;;;;;;;;;;;5068587;28;20382;-57
2022/06/16 10:09:19;;;;;;;;;;;;;;;;;;5068140;28;20014;-57
2022/06/16 10:11:45;;;;;;;;;;;;;;;;;;5067813;28;19999;-57
2022/06/16 10:14:12;;;;;;;;;;;;;;;;;;5067753;28;20411;-57
2022/06/16 10:16:38;;;;;;;;;;;;;;;;;;5067823;28;19914;-57
2022/06/16 10:19:06;;;;;;;;;;;;;;;;;;5067913;28;20275;-57
2022/06/16 10:21:32;;;;;;;;;;;;;;;;;;5067012;28;19904;-57
2022/06/16 10:23:59;;;;;;;;;;;;;;;;;;5067580;28;20272;-58
2022/06/16 10:26:24;;;;;;;;;;;;;;;;;;5067735;28;19915;-58
2022/06/16 10:28:50;;;;;;;;;;;;;;;;;;5068421;28;20271;-57
2022/06/16 10:31:16;;;;;;;;;;;;;;;;;;5067377;28;19908;-58
2022/06/16 10:33:42;;;;;;;;;;;;;;;;;;5067599;28;19904;-57
2022/06/16 10:36:08;;;;;;;;;;;;;;;;;;5067358;28;19912;-57
2022/06/16 10:38:34;;;;;;;;;;;;;;;;;;5067645;28;20272;-57
2022/06/16 10:41:01;;;;;;;;;;;;;;;;;;5067095;28;19904;-57
2022/06/16 10:43:27;;;;;;;;;;;;;;;;;;5067110;28;20376;-58
2022/06/16 10:45:53;;;;;;;;;;;;;;;;;;5067846;28;19915;-58
2022/06/16 10:48:19;;;;;;;;;;;;;;;;;;5067197;28;19908;-57
2022/06/16 10:50:45;;;;;;;;;;;;;;;;;;5067543;28;20395;-57
2022/06/16 10:53:11;;;;;;;;;;;;;;;;;;5067092;28;20220;-57
2022/06/16 10:55:38;;;;;;;;;;;;;;;;;;5067083;28;20001;-57
2022/06/16 10:58:03;;;;;;;;;;;;;;;;;;5066567;28;20489;-57
2022/06/16 11:00:29;;;;;;;;;;;;;;;;;;5067188;28;20245;-58
2022/06/16 11:02:56;;;;;;;;;;;;;;;;;;5066807;28;19965;-58
2022/06/16 11:05:22;;;;;;;;;;;;;;;;;;5067395;28;19904;-57
2022/06/16 11:07:48;;;;;;;;;;;;;;;;;;5067028;28;19908;-57
2022/06/16 11:10:14;;;;;;;;;;;;;;;;;;5066753;28;19904;-57
2022/06/16 11:12:41;;;;;;;;;;;;;;;;;;5066680;28;19913;-58
2022/06/16 11:15:08;;;;;;;;;;;;;;;;;;5066909;28;20378;-57
2022/06/16 11:17:35;;;;;;;;;;;;;;;;;;5066860;28;19912;-57
2022/06/16 11:20:01;;;;;;;;;;;;;;;;;;5066472;28;19912;-58
2022/06/16 11:22:27;;;;;;;;;;;;;;;;;;5066808;28;19904;-57
2022/06/16 11:24:53;;;;;;;;;;;;;;;;;;5067232;28;19908;-57
2022/06/16 11:27:19;;;;;;;;;;;;;;;;;;5066814;28;20280;-58
2022/06/16 11:29:46;;;;;;;;;;;;;;;;;;5066768;28;20269;-57
2022/06/16 11:32:12;;;;;;;;;;;;;;;;;;5065922;28;19954;-57
2022/06/16 11:34:39;;;;;;;;;;;;;;;;;;5065526;28;20322;-58
2022/06/16 11:37:06;;;;;;;;;;;;;;;;;;5066191;28;20328;-57
2022/06/16 11:39:33;;;;;;;;;;;;;;;;;;5066374;28;19991;-57
2022/06/16 11:41:59;;;;;;;;;;;;;;;;;;5066014;28;19904;-57
2022/06/16 11:44:24;;;;;;;;;;;;;;;;;;5066337;28;19909;-57
2022/06/16 11:46:51;;;;;;;;;;;;;;;;;;5066797;28;19999;-57
2022/06/16 11:49:17;;;;;;;;;;;;;;;;;;5065965;28;19958;-58
2022/06/16 11:51:43;;;;;;;;;;;;;;;;;;5066014;28;19913;-58
2022/06/16 11:54:09;;;;;;;;;;;;;;;;;;5064348;28;20409;-57
2022/06/16 11:56:35;;;;;;;;;;;;;;;;;;5065935;28;19916;-57
2022/06/16 11:59:01;;;;;;;;;;;;;;;;;;5066003;28;20199;-58
2022/06/16 12:01:27;;;;;;;;;;;;;;;;;;5065668;28;20375;-59
2022/06/16 12:03:54;;;;;;;;;;;;;;;;;;5066476;28;19904;-59
2022/06/16 12:06:20;;;;;;;;;;;;;;;;;;5066274;28;19935;-58
2022/06/16 12:08:46;;;;;;;;;;;;;;;;;;5065915;28;19904;-58
2022/06/16 12:11:12;;;;;;;;;;;;;;;;;;5065166;28;19916;-58
2022/06/16 12:13:39;;;;;;;;;;;;;;;;;;5064533;28;19919;-58
2022/06/16 12:16:05;;;;;;;;;;;;;;;;;;5065316;28;19908;-58
2022/06/16 12:18:31;;;;;;;;;;;;;;;;;;5065876;28;19904;-59
2022/06/16 12:20:57;;;;;;;;;;;;;;;;;;5065641;28;19910;-58
2022/06/16 12:23:23;;;;;;;;;;;;;;;;;;5066150;28;19912;-58
2022/06/16 12:25:49;;;;;;;;;;;;;;;;;;5065246;28;19969;-58
2022/06/16 12:28:14;;;;;;;;;;;;;;;;;;5065360;28;20000;-58
2022/06/16 12:30:40;;;;;;;;;;;;;;;;;;5065590;28;20669;-59
2022/06/16 12:33:06;;;;;;;;;;;;;;;;;;5065454;28;19904;-58
2022/06/16 12:35:32;;;;;;;;;;;;;;;;;;5065236;28;19905;-58
2022/06/16 12:37:59;;;;;;;;;;;;;;;;;;5065246;28;19908;-59
2022/06/16 12:40:26;;;;;;;;;;;;;;;;;;5065138;28;20335;-58
2022/06/16 12:42:52;;;;;;;;;;;;;;;;;;5065969;28;19947;-58
2022/06/16 12:45:18;;;;;;;;;;;;;;;;;;5064546;28;19940;-58
2022/06/16 12:47:44;;;;;;;;;;;;;;;;;;5065293;28;20686;-59
2022/06/16 12:50:12;;;;;;;;;;;;;;;;;;5065123;28;19999;-59
2022/06/16 12:52:38;;;;;;;;;;;;;;;;;;5064931;28;19918;-59
2022/06/16 12:55:04;;;;;;;;;;;;;;;;;;5064496;28;20038;-58
2022/06/16 12:57:31;;;;;;;;;;;;;;;;;;5065170;28;19914;-59
2022/06/16 12:59:57;;;;;;;;;;;;;;;;;;5065005;28;19908;-58
2022/06/16 13:02:23;;;;;;;;;;;;;;;;;;5065992;28;20398;-59
2022/06/16 13:04:50;;;;;;;;;;;;;;;;;;5065530;28;19912;-60
2022/06/16 13:07:18;;;;;;;;;;;;;;;;;;5064807;28;20461;-59
2022/06/16 13:09:45;;;;;;;;;;;;;;;;;;5065073;28;20169;-58
2022/06/16 13:12:11;;;;;;;;;;;;;;;;;;5064423;28;19935;-59
2022/06/16 13:14:38;;;;;;;;;;;;;;;;;;5064932;28;20450;-58
2022/06/16 13:17:04;;;;;;;;;;;;;;;;;;5064688;28;20371;-59
2022/06/16 13:19:29;;;;;;;;;;;;;;;;;;5065084;28;19975;-58
2022/06/16 13:21:56;;;;;;;;;;;;;;;;;;5064749;28;19908;-58
2022/06/16 13:24:22;;;;;;;;;;;;;;;;;;5065608;28;19987;-58
2022/06/16 13:26:48;;;;;;;;;;;;;;;;;;5065080;28;19908;-58
2022/06/16 13:29:18;;;;;;;;;;;;;;;;;;5063504;28;20482;-58
2022/06/16 13:31:48;;;;;;;;;;;;;;;;;;5064713;28;19913;-58
2022/06/16 13:34:14;;;;;;;;;;;;;;;;;;5064598;28;19913;-58
2022/06/16 13:36:40;;;;;;;;;;;;;;;;;;5064719;28;20459;-58
2022/06/16 13:39:06;;;;;;;;;;;;;;;;;;5064606;28;19912;-58
2022/06/16 13:41:32;;;;;;;;;;;;;;;;;;5064556;28;19991;-58
2022/06/16 13:43:59;;;;;;;;;;;;;;;;;;5064712;28;20159;-59
2022/06/16 13:46:25;;;;;;;;;;;;;;;;;;5064666;28;19904;-59
2022/06/16 13:48:51;;;;;;;;;;;;;;;;;;5065303;28;19908;-58
2022/06/16 13:51:16;;;;;;;;;;;;;;;;;;5064279;28;20276;-59
2022/06/16 13:53:42;;;;;;;;;;;;;;;;;;5064625;28;19904;-58
2022/06/16 13:56:09;;;;;;;;;;;;;;;;;;5064016;28;20042;-58
2022/06/16 13:58:35;;;;;;;;;;;;;;;;;;5068326;28;20401;-59
2022/06/16 14:01:02;;;;;;;;;;;;;;;;;;5068048;28;19912;-58
2022/06/16 14:03:28;;;;;;;;;;;;;;;;;;5068477;28;20066;-59
2022/06/16 14:05:54;;;;;;;;;;;;;;;;;;5068230;28;20003;-59
2022/06/16 14:08:20;;;;;;;;;;;;;;;;;;5068457;28;20739;-59
2022/06/16 14:10:46;;;;;;;;;;;;;;;;;;5067656;28;19915;-59
2022/06/16 14:13:12;;;;;;;;;;;;;;;;;;5067983;28;20046;-59
2022/06/16 14:15:37;;;;;;;;;;;;;;;;;;5068008;28;19904;-59
2022/06/16 14:18:03;;;;;;;;;;;;;;;;;;5067784;28;19909;-58
2022/06/16 14:20:29;;;;;;;;;;;;;;;;;;5067697;28;19904;-58
2022/06/16 14:22:55;;;;;;;;;;;;;;;;;;5067536;28;20318;-59
2022/06/16 14:25:21;;;;;;;;;;;;;;;;;;5068261;28;19969;-59
2022/06/16 14:27:49;;;;;;;;;;;;;;;;;;5067629;28;20359;-59
2022/06/16 14:30:15;;;;;;;;;;;;;;;;;;5067586;28;19955;-59
2022/06/16 14:32:44;;;;;;;;;;;;;;;;;;5067725;28;20386;-59
2022/06/16 14:35:10;;;;;;;;;;;;;;;;;;5067402;28;19905;-59
2022/06/16 14:37:36;;;;;;;;;;;;;;;;;;5067535;28;19990;-58
2022/06/16 14:40:02;;;;;;;;;;;;;;;;;;5067153;28;19946;-58
2022/06/16 14:42:28;;;;;;;;;;;;;;;;;;5067552;28;19905;-59
2022/06/16 14:44:54;;;;;;;;;;;;;;;;;;5068031;28;19904;-59
2022/06/16 14:47:20;;;;;;;;;;;;;;;;;;5067798;28;19904;-59
2022/06/16 14:49:47;;;;;;;;;;;;;;;;;;5067625;28;20334;-59
2022/06/16 14:52:13;;;;;;;;;;;;;;;;;;5067038;28;20113;-59
2022/06/16 14:54:39;;;;;;;;;;;;;;;;;;5067096;28;20273;-59
2022/06/16 14:57:06;;;;;;;;;;;;;;;;;;5066980;28;19904;-59
2022/06/16 14:59:33;;;;;;;;;;;;;;;;;;5067338;28;19942;-59
2022/06/16 15:01:59;;;;;;;;;;;;;;;;;;5066782;28;20432;-59
2022/06/16 15:04:25;;;;;;;;;;;;;;;;;;5066990;28;19904;-59
2022/06/16 15:06:51;;;;;;;;;;;;;;;;;;5067437;28;19908;-59
2022/06/16 15:09:17;;;;;;;;;;;;;;;;;;5066491;28;19914;-58
2022/06/16 15:11:43;;;;;;;;;;;;;;;;;;5066932;28;19921;-58
2022/06/16 15:14:09;;;;;;;;;;;;;;;;;;5057234;28;20392;-58
2022/06/16 15:19:19;;;;;;;;;;;;;;;;;;5048017;28;19936;-58
2022/06/16 15:21:45;;;;;;;;;;;;;;;;;;5046941;28;19908;-58
2022/06/16 15:24:11;;;;;;;;;;;;;;;;;;5046166;28;19951;-58
2022/06/16 15:26:37;;;;;;;;;;;;;;;;;;5046651;28;19909;-59
2022/06/16 15:29:04;;;;;;;;;;;;;;;;;;5046243;28;20007;-58
2022/06/16 15:36:46;;;;;;;;;;;;;;;;;;5047955;28;19916;-58
2022/06/16 15:39:12;;;;;;;;;;;;;;;;;;5047464;28;19905;-58
2022/06/16 15:41:38;;;;;;;;;;;;;;;;;;5065743;28;19938;-58
2022/06/16 15:44:04;;;;;;;;;;;;;;;;;;5067329;28;19947;-58
2022/06/16 15:46:30;;;;;;;;;;;;;;;;;;5078744;28;19965;-58
2022/06/16 15:48:56;;;;;;;;;;;;;;;;;;5087790;28;20619;-58
2022/06/16 15:51:22;;;;;;;;;;;;;;;;;;5076806;28;19959;-58
2022/06/16 15:53:48;;;;;;;;;;;;;;;;;;5059210;28;19908;-59
2022/06/16 15:56:14;;;;;;;;;;;;;;;;;;5074612;28;19916;-59
2022/06/16 15:58:40;;;;;;;;;;;;;;;;;;5067475;28;19912;-59
2022/06/16 16:01:07;;;;;;;;;;;;;;;;;;5060019;28;19932;-58
2022/06/16 16:03:33;;;;;;;;;;;;;;;;;;5076147;28;19908;-59
2022/06/16 16:06:00;;;;;;;;;;;;;;;;;;5066007;28;19911;-59
2022/06/16 16:08:26;;;;;;;;;;;;;;;;;;5046951;28;20291;-58
2022/06/16 16:10:51;;;;;;;;;;;;;;;;;;5067231;28;19912;-58
2022/06/16 16:13:17;;;;;;;;;;;;;;;;;;5066814;28;19990;-58
2022/06/16 16:15:43;;;;;;;;;;;;;;;;;;5066478;28;19912;-58
2022/06/16 16:18:09;;;;;;;;;;;;;;;;;;5066733;28;19908;-58
2022/06/16 16:20:35;;;;;;;;;;;;;;;;;;5066645;28;20006;-58
2022/06/16 16:23:01;;;;;;;;;;;;;;;;;;5067942;28;20395;-58
2022/06/16 16:25:27;;;;;;;;;;;;;;;;;;5073559;28;19915;-58
2022/06/16 16:27:53;;;;;;;;;;;;;;;;;;5070640;28;20440;-58
2022/06/16 16:30:19;;;;;;;;;;;;;;;;;;5066129;28;19912;-59
2022/06/16 16:32:45;;;;;;;;;;;;;;;;;;5065039;28;19916;-58
2022/06/16 16:35:11;;;;;;;;;;;;;;;;;;5071107;28;19923;-59
2022/06/16 16:37:38;;;;;;;;;;;;;;;;;;5064058;28;20425;-58
2022/06/16 16:40:05;;;;;;;;;;;;;;;;;;5065252;28;19912;-59
2022/06/16 16:45:15;;;;;;;;;;;;;;;;;;5060567;28;20350;-59
2022/06/16 16:47:41;;;;;;;;;;;;;;;;;;5066286;28;19909;-59
2022/06/16 16:50:07;;;;;;;;;;;;;;;;;;5065102;28;20003;-60
2022/06/16 16:52:33;;;;;;;;;;;;;;;;;;5064967;28;19919;-60
2022/06/16 16:54:59;;;;;;;;;;;;;;;;;;5064865;28;19924;-60
2022/06/16 16:57:25;;;;;;;;;;;;;;;;;;5056177;28;19931;-60
2022/06/16 16:59:52;;;;;;;;;;;;;;;;;;5045703;28;19912;-59
2022/06/16 17:02:18;;;;;;;;;;;;;;;;;;5045209;28;20443;-59
2022/06/16 17:04:43;;;;;;;;;;;;;;;;;;5045198;28;20051;-59
2022/06/16 17:07:09;;;;;;;;;;;;;;;;;;5066157;28;19999;-59
2022/06/16 17:09:36;;;;;;;;;;;;;;;;;;5066655;28;19909;-59